Date,TemperatureHighF,TemperatureAvgF,TemperatureLowF,DewpointHighF,DewpointAvgF,DewpointLowF,HumidityHigh,HumidityAvg,HumidityLow,PressureMaxIn,PressureMinIn,WindSpeedMaxMPH,WindSpeedAvgMPH,GustSpeedMaxMPH,PrecipitationSumIn
2013-1-1,30,24,15,23,18,8,88,80,66,30.28,30.17,14,7,18,0.00
2013-1-2,25,17,8,15,10,5,86,75,57,30.34,30.26,11,5,15,0.00
2013-1-3,31,25,16,25,20,10,88,79,69,30.36,30.24,12,5,17,0.00
2013-1-4,34,24,14,25,19,11,88,82,67,30.37,30.27,12,5,18,0.00
2013-1-5,35,28,19,33,26,17,96,89,75,30.38,30.09,13,5,18,0.01
2013-1-6,35,30,21,33,26,18,91,84,77,30.43,30.02,23,6,23,0.00
2013-1-7,36,26,16,28,22,15,93,84,61,30.48,30.25,15,7,22,0.00
2013-1-8,40,32,24,33,28,23,92,85,74,30.30,30.17,10,6,15,0.01
2013-1-9,51,41,27,36,29,19,88,66,34,30.57,30.14,22,7,26,0.00
2013-1-10,41,34,22,41,29,20,97,82,66,30.60,30.04,16,5,21,0.07
2013-1-11,53,49,42,52,48,41,98,94,89,30.02,29.78,12,7,19,0.18
2013-1-12,56,48,35,50,43,33,93,84,68,30.02,29.84,17,7,27,0.05
2013-1-13,36,28,15,34,26,11,96,92,81,30.34,29.91,15,8,22,0.02
2013-1-14,24,17,12,18,13,9,91,84,66,30.58,30.35,9,3,12,0.00
2013-1-15,30,20,11,23,16,9,93,85,66,30.55,30.23,7,1,9,0.03
2013-1-16,36,28,14,29,22,13,93,81,64,30.23,29.98,16,4,23,0.04
2013-1-17,34,29,18,30,19,13,89,69,47,30.50,30.15,23,8,27,0.00
2013-1-18,39,29,15,30,22,12,91,77,63,30.54,30.08,21,8,28,0.09
2013-1-19,48,42,35,38,33,20,79,71,48,30.09,29.84,24,9,39,0.05
2013-1-20,33,21,16,17,7,4,65,56,46,30.37,29.97,27,9,35,0.00
2013-1-21,17,11,6,9,2,-5,84,65,51,30.39,30.24,20,9,25,0.00
2013-1-22,12,7,1,2,-2,-6,75,65,54,30.52,30.39,16,5,19,0.00
2013-1-23,21,17,11,16,7,1,86,67,56,30.47,30.22,19,5,28,0.00
2013-1-24,18,17,12,15,10,7,91,77,65,30.73,30.37,19,5,25,0.00
2013-1-25,28,22,18,22,17,11,90,79,67,30.51,30.10,14,5,23,0.00
2013-1-26,29,22,17,20,16,13,87,78,67,30.52,30.25,16,4,20,0.00
2013-1-27,36,28,21,35,24,17,96,85,78,30.51,30.07,18,7,24,0.04
2013-1-28,50,45,36,49,44,35,99,98,96,30.05,29.93,12,4,17,0.09
2013-1-29,59,56,45,58,55,45,99,97,92,29.93,29.45,21,9,28,0.85
2013-1-30,53,38,24,53,37,20,99,94,82,29.68,29.24,23,8,28,0.29
2013-1-31,23,16,7,20,11,2,89,78,71,30.25,29.68,23,12,26,0.00
2013-2-1,17,10,3,14,4,-2,88,76,67,30.50,30.26,22,6,22,0.00
2013-2-2,26,20,13,24,17,9,93,89,81,30.34,30.09,14,6,20,0.00
2013-2-3,26,18,10,19,12,5,90,79,64,30.18,30.07,11,5,23,0.00
2013-2-4,29,25,21,25,22,19,94,90,82,30.17,29.94,9,3,15,0.03
2013-2-5,32,26,16,30,24,14,95,90,80,30.17,29.90,18,5,20,0.00
2013-2-6,36,31,22,29,25,18,90,77,68,30.35,30.17,13,5,17,0.04
2013-2-7,44,36,30,38,32,27,97,88,77,30.22,29.91,15,5,22,0.16
2013-2-8,34,30,28,33,28,26,97,91,80,30.46,29.95,26,12,34,0.00
2013-2-9,38,32,28,30,27,24,92,83,75,30.49,30.21,14,5,18,0.00
2013-2-10,50,40,31,48,37,26,96,89,78,30.21,29.63,20,9,31,0.21
2013-2-11,48,35,30,41,28,24,78,74,71,30.12,29.65,29,11,35,0.00
2013-2-12,31,28,20,25,23,18,91,81,76,30.20,30.04,15,5,23,0.00
2013-2-13,45,32,19,35,27,17,94,84,64,30.04,29.82,14,3,16,0.00
2013-2-14,42,36,31,35,30,23,93,79,61,30.06,29.77,21,7,24,0.00
2013-2-15,33,29,24,28,21,13,91,72,47,30.26,30.06,19,7,24,0.00
2013-2-16,24,19,14,21,10,5,87,69,53,30.27,30.21,20,8,23,0.00
2013-2-17,29,21,10,17,9,4,84,61,42,30.33,30.17,9,5,16,0.00
2013-2-18,53,40,26,45,33,16,95,76,63,30.17,29.53,24,12,35,0.30
2013-2-19,34,19,14,33,13,8,93,79,73,30.26,29.62,21,12,31,0.00
2013-2-20,27,18,11,20,12,5,85,75,57,30.46,30.27,13,7,19,0.00
2013-2-21,28,26,24,23,21,20,92,81,76,30.46,30.11,16,6,31,0.00
2013-2-22,34,29,23,33,27,21,97,92,80,30.11,29.93,12,6,21,0.02
2013-2-23,29,27,25,25,22,20,87,80,70,30.07,30.02,12,4,18,0.00
2013-2-24,37,27,15,26,21,13,93,79,59,30.25,30.07,7,2,10,0.03
2013-2-25,43,32,20,31,26,18,93,78,60,30.29,30.05,16,4,21,0.00
2013-2-26,35,34,33,33,30,26,96,87,70,30.05,29.56,22,8,32,0.54
2013-2-27,35,33,33,34,32,32,98,97,96,29.74,29.56,11,4,15,0.39
2013-2-28,37,33,30,35,32,28,97,94,87,30.10,29.74,25,12,28,0.11
2013-3-1,34,31,29,29,27,23,94,84,73,30.23,30.08,18,8,23,0.01
2013-3-2,30,28,26,27,23,20,91,80,74,30.24,30.20,16,6,23,0.00
2013-3-3,36,26,18,23,17,14,91,71,41,30.22,30.16,16,5,18,0.00
2013-3-4,36,28,16,30,22,14,92,80,59,30.24,30.09,12,3,18,0.00
2013-3-5,33,31,29,30,29,27,96,93,83,30.09,29.84,17,7,25,0.01
2013-3-6,34,32,29,31,29,27,94,90,87,30.37,30.01,19,10,28,0.07
2013-3-7,39,33,25,30,27,22,90,79,61,30.51,30.37,8,3,12,0.27
2013-3-8,38,29,17,27,23,16,94,79,63,30.60,30.44,8,2,11,0.01
2013-3-9,42,36,28,36,31,23,87,80,73,30.43,29.97,16,7,22,0.00
2013-3-10,57,47,38,50,43,35,96,85,76,29.97,29.72,13,4,23,0.36
2013-3-11,50,41,33,49,40,31,97,94,89,29.88,29.63,15,5,22,0.08
2013-3-12,38,33,29,31,28,23,94,82,62,30.09,29.88,20,8,23,0.00
2013-3-13,37,29,24,24,19,16,90,68,44,30.42,30.09,21,9,25,0.00
2013-3-14,40,31,21,31,23,16,93,75,49,30.42,30.20,11,3,16,0.00
2013-3-15,46,37,27,42,35,26,97,91,72,30.19,29.80,8,2,10,0.11
2013-3-16,38,34,31,37,31,25,98,90,77,30.20,29.73,18,8,27,0.00
2013-3-17,38,32,30,26,24,21,80,71,59,30.29,30.10,17,7,21,0.00
2013-3-18,36,31,24,34,28,17,97,88,70,30.09,29.70,24,7,31,0.04
2013-3-19,36,27,20,20,16,13,81,65,48,30.18,29.91,26,11,35,0.01
2013-3-20,28,24,19,18,12,7,84,61,46,30.17,30.11,16,9,23,0.00
2013-3-21,37,25,15,19,13,7,86,62,43,30.15,30.10,13,6,19,0.00
2013-3-22,44,28,16,22,18,14,92,69,38,30.16,30.08,14,2,14,0.00
2013-3-23,44,33,25,27,24,22,91,72,47,30.22,30.09,14,4,17,0.00
2013-3-24,38,33,30,30,26,24,94,75,60,30.11,29.69,19,10,30,0.00
2013-3-25,39,34,29,31,29,27,94,83,73,30.12,29.73,27,14,36,0.12
2013-3-26,43,36,32,31,29,24,95,76,50,30.32,30.13,16,7,21,0.02
2013-3-27,46,38,30,29,26,20,85,65,39,30.39,30.32,13,5,18,0.00
2013-3-28,53,38,23,27,24,21,91,62,33,30.43,30.35,11,3,16,0.00
2013-3-29,56,40,28,30,25,21,89,60,29,30.40,30.30,10,2,14,0.00
2013-3-30,58,44,26,39,32,23,88,64,44,30.32,29.94,13,4,16,0.00
2013-3-31,60,50,40,44,38,28,95,68,39,29.94,29.76,20,8,30,0.01
2013-4-1,42,36,28,29,22,18,75,58,42,30.24,29.92,20,8,23,0.00
2013-4-2,47,34,22,20,16,12,80,50,28,30.39,30.24,16,5,22,0.00
2013-4-3,47,33,20,27,19,16,89,62,29,30.53,30.39,11,3,19,0.00
2013-4-4,58,41,23,30,23,20,89,54,25,30.43,30.05,11,2,13,0.00
2013-4-5,48,42,35,35,28,21,90,61,37,30.27,30.05,16,9,23,0.00
2013-4-6,70,54,33,45,35,27,77,52,32,30.24,29.71,26,10,34,0.00
2013-4-7,62,52,46,49,41,37,86,68,49,30.01,29.73,14,6,23,0.02
2013-4-8,72,57,44,58,48,37,95,75,54,30.05,29.75,24,9,34,0.20
2013-4-9,78,56,42,62,50,41,94,79,55,30.05,29.85,15,6,22,0.00
2013-4-10,52,44,41,50,42,39,96,94,85,30.02,29.86,17,7,26,0.22
2013-4-11,53,47,43,52,46,42,98,96,94,29.90,29.63,16,5,22,1.06
2013-4-12,44,40,37,41,36,33,96,86,77,29.95,29.66,14,6,25,0.03
2013-4-13,46,40,36,36,32,29,92,76,57,30.07,29.95,16,6,24,0.00
2013-4-14,69,52,38,53,42,33,88,71,55,30.09,29.80,22,7,25,0.00
2013-4-15,65,57,46,58,52,45,96,83,65,30.01,29.80,17,8,26,0.58
2013-4-16,53,47,43,45,40,35,96,78,60,30.32,29.99,13,6,16,0.18
2013-4-17,55,48,44,51,44,36,97,84,72,30.33,29.88,19,7,30,0.97
2013-4-18,69,58,45,66,57,41,97,94,85,29.87,29.52,35,8,35,1.12
2013-4-19,44,38,34,41,32,30,88,79,72,29.99,29.58,23,9,36,0.01
2013-4-20,47,38,32,31,24,19,84,59,39,30.52,30.00,16,7,21,0.00
2013-4-21,53,42,29,33,26,23,80,56,35,30.63,30.44,14,6,21,0.00
2013-4-22,66,52,36,40,36,32,87,56,31,30.44,30.14,14,5,19,0.00
2013-4-23,65,51,38,54,45,37,94,80,61,30.14,29.92,22,7,27,0.24
2013-4-24,51,42,37,37,34,29,94,76,45,30.23,29.95,23,8,27,0.01
2013-4-25,53,44,34,37,33,30,88,69,44,30.43,30.17,16,5,22,0.00
2013-4-26,66,49,31,46,39,29,94,71,48,30.47,30.35,18,5,23,0.00
2013-4-27,69,55,38,52,43,36,96,68,33,30.39,30.06,13,4,21,0.00
2013-4-28,65,57,48,56,53,47,96,86,70,30.06,29.88,11,4,16,0.05
2013-4-29,72,59,42,56,52,42,99,77,55,30.00,29.88,16,5,22,0.01
2013-4-30,83,70,57,63,58,53,85,68,41,30.02,29.90,17,9,21,0.00
2013-5-1,84,71,56,60,57,54,96,65,38,30.18,30.02,16,4,21,0.00
2013-5-2,62,52,42,57,46,39,90,80,66,30.24,30.16,24,10,26,0.00
2013-5-3,60,50,41,57,47,39,96,89,72,30.17,30.00,17,7,23,0.09
2013-5-4,74,64,54,56,50,42,92,63,36,30.07,29.99,13,4,20,0.01
2013-5-5,75,60,46,52,47,43,92,65,34,30.07,29.99,19,5,23,0.00
2013-5-6,75,59,48,54,46,41,87,65,37,30.07,30.00,16,6,18,0.00
2013-5-7,76,62,46,55,48,42,87,62,42,30.09,30.03,14,4,16,0.00
2013-5-8,80,66,50,57,52,47,89,63,37,30.08,30.01,14,3,16,0.00
2013-5-9,77,62,50,60,55,48,96,80,46,30.01,29.86,11,3,15,0.33
2013-5-10,61,49,41,60,48,40,97,95,91,30.02,29.80,20,8,26,0.01
2013-5-11,62,48,38,54,43,35,97,84,60,30.09,29.91,17,5,38,0.00
2013-5-12,56,46,35,36,32,30,89,62,39,30.19,30.09,20,6,25,0.00
2013-5-13,66,51,33,36,32,27,93,53,25,30.26,30.11,15,2,18,0.00
2013-5-14,91,71,51,62,50,32,66,50,30,30.11,29.72,13,4,19,0.00
2013-5-15,83,74,59,62,56,52,80,55,36,29.85,29.70,15,5,20,0.00
2013-5-16,86,70,52,54,49,42,93,54,24,30.01,29.85,14,3,15,0.00
2013-5-17,79,67,56,64,56,45,97,69,48,30.08,29.99,10,2,15,0.09
2013-5-18,79,68,59,65,60,49,96,75,57,30.11,30.00,11,3,13,0.00
2013-5-19,86,74,60,68,64,58,95,71,48,30.01,29.82,12,4,17,0.00
2013-5-20,88,79,70,70,66,61,92,68,41,29.86,29.76,18,6,23,0.00
2013-5-21,81,71,64,70,66,62,96,82,63,29.83,29.72,10,4,24,0.78
2013-5-22,75,69,65,66,63,55,95,81,52,29.78,29.68,12,4,20,0.08
2013-5-23,62,48,41,57,45,37,96,90,71,30.32,29.78,28,11,33,0.06
2013-5-24,57,48,40,43,38,34,91,72,44,30.49,30.32,18,7,21,0.00
2013-5-25,60,49,36,51,43,35,94,80,69,30.47,30.35,7,2,12,0.00
2013-5-26,70,57,42,56,48,39,94,74,46,30.38,30.19,12,3,15,0.03
2013-5-27,63,58,53,62,57,52,98,94,87,30.20,29.91,17,5,19,0.29
2013-5-28,80,70,63,72,66,62,98,89,72,29.96,29.81,13,4,33,0.67
2013-5-29,85,74,63,73,67,62,97,80,61,30.00,29.87,9,3,22,0.08
2013-5-30,84,76,68,72,68,63,86,75,62,30.00,29.89,19,6,26,0.02
2013-5-31,76,70,66,69,66,64,95,87,77,29.96,29.79,15,5,20,0.18
2013-6-1,77,69,62,68,64,60,96,84,70,29.84,29.72,15,5,25,0.24
2013-6-2,64,55,43,61,51,42,95,86,73,30.11,29.77,16,6,22,0.01
2013-6-3,69,54,40,50,44,39,96,72,43,30.19,30.10,9,2,14,0.00
2013-6-4,74,60,44,53,48,42,95,67,39,30.22,30.14,12,3,15,0.00
2013-6-5,78,68,55,55,52,48,90,59,40,30.15,29.95,9,3,13,0.00
2013-6-6,71,63,54,58,52,46,87,68,54,29.95,29.89,15,6,18,0.02
2013-6-7,69,60,52,57,51,42,94,74,48,29.98,29.92,18,6,21,0.00
2013-6-8,77,63,49,57,51,46,93,68,46,30.05,29.96,11,3,17,0.00
2013-6-9,82,72,59,65,58,51,89,65,42,30.05,29.86,13,3,17,0.00
2013-6-10,78,69,61,68,65,60,97,87,70,29.91,29.78,12,4,15,0.35
2013-6-11,85,71,58,69,64,58,99,81,52,29.97,29.86,8,2,14,0.11
2013-6-12,89,75,65,77,71,64,98,86,62,29.94,29.64,16,3,20,0.00
2013-6-17,88,77,68,66,57,-100,79,56,36,29.95,0.00,11,-23,25,0.00
2013-6-18,73,65,58,64,59,55,94,81,65,30.09,29.92,15,8,22,0.00
2013-6-19,80,68,58,58,53,48,82,60,43,30.19,30.09,12,4,15,0.00
2013-6-20,84,73,59,69,62,51,83,68,54,30.21,30.12,7,2,10,0.00
2013-6-21,86,71,64,72,63,-100,95,81,58,30.18,29.97,17,-18,26,0.06
2013-6-22,84,75,68,75,70,66,92,85,72,30.12,30.00,9,2,13,0.00
2013-6-23,86,75,65,74,69,64,96,82,67,30.09,29.99,9,2,18,0.00
2013-6-24,85,71,67,76,66,-100,96,86,69,30.11,29.95,9,-12,19,0.08
2013-6-25,88,76,68,77,72,66,96,86,68,30.01,29.83,8,2,20,0.04
2013-6-26,80,72,65,74,69,64,97,91,82,29.92,29.75,16,3,33,1.18
2013-6-27,91,76,67,76,70,66,98,83,52,29.82,29.71,11,3,36,0.04
2013-6-28,84,72,64,68,65,62,98,81,50,29.72,29.62,26,4,35,0.17
2013-6-29,75,67,64,67,64,62,96,90,75,29.77,29.61,13,6,19,0.00
2013-6-30,75,69,65,66,62,59,94,79,65,29.99,29.77,17,7,23,0.00
2013-7-1,77,69,60,62,55,43,90,62,48,30.07,29.98,20,7,23,0.00
2013-7-2,68,63,61,62,58,54,94,85,62,30.09,30.05,14,5,16,0.05
2013-7-3,74,66,60,70,64,59,98,92,76,30.13,30.04,5,2,9,0.13
2013-7-4,77,68,55,67,63,55,99,85,67,30.18,30.11,8,2,12,0.01
2013-7-5,81,71,58,70,65,57,98,83,67,30.15,30.07,6,1,13,0.00
2013-7-6,78,72,66,72,69,65,97,90,76,30.11,30.02,7,1,8,0.00
2013-7-7,85,76,67,74,70,66,97,84,63,30.08,30.00,8,2,10,0.00
2013-7-8,85,75,69,76,72,67,97,88,72,30.12,29.98,11,2,15,0.35
2013-7-9,83,78,71,78,75,70,98,90,79,30.03,29.91,10,1,27,0.13
2013-7-10,82,74,60,77,66,-100,98,81,63,30.03,29.86,16,-18,19,0.00
2013-7-11,80,68,57,65,59,55,96,75,43,30.13,30.03,17,4,19,0.00
2013-7-12,84,70,55,67,60,53,95,74,49,30.19,30.12,13,2,13,0.00
2013-7-13,83,72,58,68,64,56,96,76,54,30.21,30.14,9,2,13,0.00
2013-7-14,88,78,67,75,70,65,94,77,57,30.23,30.18,7,3,16,0.00
2013-7-15,90,81,73,79,75,71,94,83,66,30.30,30.23,7,2,11,0.00
2013-7-16,90,81,70,77,74,69,97,82,60,30.35,30.28,6,1,9,0.00
2013-7-17,93,81,69,78,74,68,98,80,55,30.35,30.20,8,1,11,0.00
2013-7-18,94,82,71,79,75,70,97,79,57,30.21,30.00,6,1,11,0.00
2013-7-19,95,85,74,78,75,72,95,73,49,30.00,29.80,13,3,20,0.00
2013-7-20,89,81,72,75,69,60,82,68,41,29.96,29.81,13,4,17,0.00
2013-7-21,86,77,67,72,68,64,95,76,54,29.99,29.88,10,2,16,0.00
2013-7-22,86,76,69,72,69,66,94,80,57,29.90,29.78,11,2,16,0.00
2013-7-23,80,72,64,70,63,52,93,75,63,29.99,29.72,21,8,29,0.00
2013-7-24,73,65,55,55,51,48,91,64,44,30.09,29.98,18,6,24,0.00
2013-7-25,81,66,52,62,56,50,95,73,43,30.16,30.09,7,1,11,0.00
2013-7-26,76,66,59,65,61,56,93,84,65,30.11,29.93,5,1,13,0.00
2013-7-27,69,64,56,65,57,48,97,79,57,29.96,29.89,16,5,21,0.00
2013-7-28,70,59,50,55,51,48,93,76,49,30.08,29.93,11,3,15,0.03
2013-7-29,78,66,51,61,56,49,94,72,55,30.23,30.08,10,4,15,0.00
2013-7-30,72,65,54,64,60,52,93,83,68,30.24,30.12,5,1,12,0.00
2013-7-31,71,67,62,68,65,61,98,93,84,30.12,30.00,7,2,9,0.04
2013-8-1,82,68,57,67,59,55,98,77,41,30.02,29.98,13,3,17,0.01
2013-8-2,85,65,55,73,59,-100,98,86,64,30.01,29.88,12,-19,21,0.84
2013-8-3,79,70,58,69,62,53,99,78,43,30.14,29.98,13,4,19,0.01
2013-8-4,77,66,56,64,58,54,96,77,51,30.23,30.15,13,3,15,0.00
2013-8-5,74,65,57,66,60,54,93,83,68,30.18,29.96,8,2,12,0.00
2013-8-6,80,71,64,72,67,62,96,89,73,29.97,29.90,6,2,12,0.01
2013-8-7,85,75,67,77,72,65,98,90,74,29.96,29.84,18,2,26,0.74
2013-8-8,79,71,64,67,64,60,97,80,58,30.04,29.97,13,5,16,0.00
2013-8-9,82,72,60,68,63,58,95,76,51,30.07,30.00,7,2,10,0.00
2013-8-10,82,73,64,68,62,55,96,73,45,30.16,30.07,10,3,18,0.00
2013-8-11,81,70,57,67,60,55,94,74,50,30.17,30.08,7,1,10,0.00
2013-8-12,85,72,63,70,66,61,96,83,57,30.09,29.89,9,2,20,0.24
2013-8-13,71,64,54,67,57,51,97,78,55,30.18,29.95,18,7,24,0.00
2013-8-14,71,60,49,55,51,48,96,77,51,30.27,30.18,13,2,16,0.00
2013-8-15,74,61,47,62,54,46,97,80,51,30.24,30.16,6,1,8,0.00
2013-8-16,78,68,56,61,57,53,95,72,44,30.23,30.17,8,2,13,0.00
2013-8-17,78,66,54,62,58,53,95,76,47,30.28,30.21,11,2,16,0.00
2013-8-18,82,69,56,64,60,54,94,75,51,30.25,30.14,8,2,13,0.00
2013-8-19,82,70,56,67,62,55,97,78,50,30.17,30.07,5,1,9,0.00
2013-8-20,84,72,60,70,66,58,96,81,60,30.18,30.09,8,1,10,0.00
2013-8-21,88,75,61,73,67,60,97,79,51,30.15,30.02,7,1,13,0.00
2013-8-22,75,71,64,70,68,63,97,91,83,30.16,30.02,14,4,23,0.01
2013-8-23,83,72,62,67,62,57,98,74,48,30.21,30.13,10,4,18,0.01
2013-8-24,82,70,58,65,60,55,92,73,48,30.31,30.21,7,2,11,0.00
2013-8-25,88,72,57,69,64,56,96,77,51,30.32,30.20,8,1,12,0.00
2013-8-26,89,75,62,75,69,59,96,81,61,30.22,30.06,6,1,11,0.00
2013-8-27,94,81,68,77,73,67,95,77,52,30.06,29.88,10,2,15,0.00
2013-8-28,81,76,71,74,70,67,97,82,66,30.06,29.87,15,6,17,0.00
2013-8-29,88,76,68,73,70,64,98,81,48,30.11,30.01,8,2,12,0.00
2013-8-30,94,76,64,77,67,-100,97,79,56,30.02,29.80,12,-19,18,0.05
2013-8-31,77,72,68,73,70,66,97,93,85,29.89,29.80,10,3,14,0.21
2013-9-1,83,74,67,74,70,66,99,89,70,29.84,29.77,10,2,16,0.01
2013-9-2,79,71,63,70,65,58,95,80,61,30.01,29.80,16,6,17,0.00
2013-9-3,76,64,56,61,58,54,96,81,54,30.13,30.00,8,2,12,0.00
2013-9-4,84,66,50,64,58,49,97,77,43,30.18,30.10,8,2,14,0.00
2013-9-5,80,67,58,63,58,52,96,73,49,30.28,30.16,10,3,14,0.00
2013-9-6,83,69,56,68,58,49,90,69,50,30.28,30.08,7,2,11,0.00
2013-9-7,89,72,60,72,65,59,97,81,45,30.08,29.93,9,1,13,0.00
2013-9-8,80,73,67,70,68,65,94,85,72,30.04,29.97,15,4,16,0.00
2013-9-9,93,79,65,77,71,63,96,78,57,30.02,29.87,12,3,12,0.00
2013-9-10,96,83,70,72,69,66,93,66,37,30.05,29.93,13,2,20,0.00
2013-9-11,96,79,70,72,70,68,95,78,42,30.08,29.98,15,3,30,0.21
2013-9-12,84,73,64,70,63,52,96,74,33,30.08,29.92,21,6,32,0.21
2013-9-13,67,60,47,56,50,45,92,70,51,30.19,30.08,20,6,26,0.00
2013-9-14,70,55,40,49,44,39,97,71,37,30.26,30.12,7,1,11,0.00
2013-9-15,67,57,46,60,53,44,96,85,65,30.19,30.04,6,2,8,0.11
2013-9-16,67,58,52,56,50,-100,96,78,58,30.39,30.20,14,-16,16,0.00
2013-9-17,70,59,47,55,51,45,92,75,57,30.40,30.19,7,2,15,0.00
2013-9-18,81,67,58,69,58,-100,97,77,59,30.18,29.99,17,-8,33,0.52
2013-9-19,75,70,65,72,68,64,97,94,87,30.05,29.88,11,4,16,0.34
2013-9-20,76,70,67,72,68,66,97,93,85,29.89,29.82,6,3,15,0.44
2013-10-4,73,71,71,69,68,68,92,89,86,30.01,30.00,6,3,9,0.00
2013-10-5,80,70,66,72,68,65,98,92,75,30.00,29.82,15,4,18,0.30
2013-10-6,67,57,44,66,52,42,97,84,56,29.84,29.74,12,3,18,0.34
2013-10-7,67,52,45,50,46,42,93,79,47,30.17,29.82,12,3,18,0.00
2013-10-8,76,57,43,56,49,41,97,77,40,30.27,30.17,6,2,9,0.00
2013-10-9,72,57,43,51,47,41,95,74,41,30.32,30.21,7,1,12,0.00
2013-10-10,76,59,44,58,50,42,95,76,43,30.25,30.12,9,1,9,0.00
2013-10-11,76,59,45,53,49,44,95,73,38,30.16,30.04,9,2,12,0.00
2013-10-12,77,62,49,65,55,46,93,81,57,30.22,30.03,17,3,20,0.02
2013-10-13,64,52,41,52,44,39,96,79,49,30.46,30.22,17,3,19,0.00
2013-10-14,65,52,39,48,44,38,95,75,48,30.47,30.23,10,2,14,0.00
2013-10-15,64,57,49,62,54,46,96,90,79,30.22,29.87,12,4,15,0.12
2013-10-16,55,50,43,49,46,41,94,86,78,30.01,29.93,12,3,17,0.00
2013-10-17,54,48,39,48,45,38,96,88,73,30.00,29.90,11,2,19,0.10
2013-10-18,55,44,37,48,40,35,96,87,73,30.05,29.93,13,2,19,0.01
2013-10-19,55,47,42,43,39,34,95,76,45,30.02,29.87,14,3,21,0.02
2013-10-20,64,52,37,47,42,35,94,72,50,29.98,29.82,14,4,19,0.01
2013-10-21,55,47,32,48,39,28,93,75,55,30.05,29.88,13,4,19,0.03
2013-10-22,44,36,27,36,31,25,96,85,52,30.08,29.99,9,2,11,0.13
2013-10-23,46,40,35,37,32,26,96,76,49,30.10,29.95,13,6,22,0.00
2013-10-24,44,40,36,32,28,25,85,66,49,30.36,30.09,16,6,24,0.00
2013-10-25,50,40,29,32,29,25,86,66,47,30.50,30.20,19,4,19,0.00
2013-10-26,56,45,32,39,34,29,90,65,50,30.19,29.93,19,5,24,0.00
2013-10-27,56,40,28,37,31,26,94,74,41,30.17,30.07,9,1,17,0.00
2013-10-28,61,43,28,46,37,27,94,80,42,30.42,30.16,10,2,13,0.00
2013-10-29,56,45,36,44,39,34,92,80,58,30.45,30.23,7,3,13,0.00
2013-10-30,64,53,42,63,51,40,98,92,84,30.22,29.87,10,3,16,0.98
2013-10-31,64,60,49,63,59,47,97,96,92,29.86,29.27,19,8,26,0.81
2013-11-1,51,47,45,46,43,42,96,87,73,29.81,29.43,20,5,28,0.08
2013-11-2,49,44,40,44,41,38,96,90,73,30.20,29.80,15,6,22,0.08
2013-11-3,50,44,38,43,40,37,97,85,64,30.40,30.20,12,3,14,0.07
2013-11-4,56,48,41,45,41,37,88,76,59,30.40,30.23,17,7,23,0.00
2013-11-5,56,53,50,51,48,45,95,82,73,30.36,30.08,14,6,23,0.00
2013-11-6,57,50,38,54,47,34,96,89,73,30.20,29.87,15,8,23,0.64
2013-11-7,46,38,31,35,31,28,92,75,55,30.33,30.21,13,5,21,0.00
2013-11-8,47,40,28,36,32,26,95,75,60,30.43,30.12,13,5,18,0.00
2013-11-9,60,51,42,43,39,30,74,65,50,30.16,29.96,19,9,28,0.00
2013-11-10,49,41,34,35,31,27,87,69,51,30.40,30.17,17,6,26,0.00
2013-11-11,47,40,31,41,34,26,94,80,68,30.51,30.18,18,7,26,0.07
2013-11-12,35,29,22,29,24,18,94,81,58,30.74,30.51,15,3,18,0.02
2013-11-13,38,28,17,26,21,15,91,75,53,30.70,30.32,13,4,19,0.04
2013-11-14,51,39,30,32,27,22,76,62,47,30.32,30.07,16,6,19,0.00
2013-11-15,49,42,36,39,33,28,81,70,56,30.11,30.05,11,4,14,0.00
2013-11-16,61,52,40,58,49,35,94,89,81,30.06,29.70,18,10,30,0.11
2013-11-17,66,58,44,63,54,37,96,86,70,29.78,29.27,24,13,42,0.37
2013-11-18,45,40,34,37,32,27,85,72,56,30.31,29.78,26,9,33,0.00
2013-11-19,44,36,30,32,29,25,85,75,58,30.44,30.32,11,4,15,0.00
2013-11-20,44,37,29,39,31,26,93,79,60,30.41,30.20,16,6,23,0.10
2013-11-21,49,46,41,46,43,38,98,91,84,30.27,30.21,12,4,17,0.35
2013-11-22,46,38,28,45,35,26,98,89,79,30.54,30.24,23,9,27,0.00
2013-11-23,29,25,21,25,17,11,88,72,60,30.74,30.49,23,12,35,0.00
2013-11-24,27,20,14,13,9,-1,78,62,32,30.81,30.53,13,5,19,0.00
2013-11-25,32,28,20,27,20,11,92,75,58,30.52,30.20,17,6,18,0.00
2013-11-26,36,30,24,30,25,18,93,84,69,30.21,30.08,21,6,30,0.01
2013-11-27,28,24,18,21,17,13,91,77,63,30.36,30.17,18,9,25,0.00
2013-11-28,36,28,22,22,18,15,79,67,54,30.57,30.29,13,5,18,0.00
2013-11-29,36,29,19,25,22,16,89,74,59,30.73,30.53,9,3,13,0.00
2013-11-30,50,37,28,34,29,24,87,72,52,30.53,30.16,15,5,16,0.00
2013-12-1,45,34,26,39,31,24,95,89,77,30.18,30.06,12,2,14,0.00
2013-12-2,42,36,27,34,31,26,96,83,64,30.06,29.86,13,3,14,0.07
2013-12-3,50,44,36,49,42,34,97,95,92,29.86,29.78,13,6,18,0.01
2013-12-4,58,51,45,57,50,44,98,96,88,29.84,29.61,20,6,25,0.01
2013-12-5,46,30,24,43,24,17,88,79,71,30.33,29.75,20,7,23,0.01
2013-12-6,25,23,16,19,16,10,81,76,72,30.60,30.31,14,8,18,0.00
2013-12-7,23,16,12,14,10,7,91,77,61,30.78,30.61,12,5,16,0.00
2013-12-8,26,22,12,25,18,10,95,85,73,30.70,30.05,15,4,21,0.00
2013-12-9,26,20,7,25,15,-1,95,81,68,30.35,30.04,14,7,22,0.00
2013-12-10,24,14,-1,14,6,-5,85,71,61,30.43,30.18,18,8,28,0.00
2013-12-11,23,16,3,18,10,-4,91,78,63,30.69,30.41,15,5,20,0.00
2013-12-12,22,9,-6,13,3,-10,90,77,62,30.68,30.37,13,4,21,0.00
2013-12-13,29,21,10,26,16,7,95,83,73,30.36,30.22,9,3,14,0.00
2013-12-14,28,27,25,27,26,24,96,95,93,30.22,29.95,15,7,20,0.00
2013-12-15,27,16,11,25,13,7,94,87,83,30.24,30.03,15,6,21,0.00
2013-12-16,21,17,10,19,14,8,93,87,78,30.28,30.14,8,2,13,0.00
2013-12-17,32,24,18,27,21,16,94,87,73,30.19,30.07,14,5,23,0.02
2013-12-18,38,25,15,32,18,11,87,77,69,30.30,29.97,15,7,20,0.00
2013-12-19,40,38,32,38,35,30,97,89,79,30.05,29.87,9,3,15,0.18
2013-12-20,41,38,35,41,37,34,98,98,97,29.87,29.79,7,4,10,0.15
2013-12-21,36,35,34,36,34,33,99,98,97,29.91,29.64,11,4,25,0.36
2013-12-22,35,32,27,34,32,25,97,95,89,30.19,29.62,14,5,16,0.03
2013-12-23,27,18,2,25,14,-3,91,84,69,30.57,30.20,15,7,21,0.00
2013-12-24,19,10,1,14,6,-3,87,82,77,30.69,30.53,10,5,17,0.00
2013-12-25,28,24,19,27,21,14,95,87,77,30.53,30.21,12,6,19,0.00
2013-12-26,34,27,16,30,22,12,93,83,75,30.42,30.21,15,6,21,0.00
2013-12-27,42,35,25,35,31,23,94,84,74,30.41,30.21,14,5,21,0.04
2013-12-28,49,40,33,39,34,30,89,80,67,30.21,29.95,13,6,17,0.00
2013-12-29,37,30,18,34,27,14,93,87,81,30.23,29.85,25,8,28,0.00
2013-12-30,18,14,8,14,9,4,88,83,77,30.42,30.24,10,4,16,0.00
2013-12-31,18,12,6,15,9,3,90,85,76,30.49,30.29,8,3,14,0.00
2014-1-1,20,18,14,16,15,12,91,89,84,30.40,30.25,15,7,19,0.00
2014-1-2,20,16,11,15,12,9,90,86,72,30.50,30.18,23,7,31,0.00